RPA4621 KORF-KLGA
Flight info
| Callsign | RPA4621 |
|---|---|
| Flight time | 0h 59m |
| Altitude | 31000 |
| Route | NUTIY1 HYTRA PROUD2 |
| Aircraft | E170/M-SDE3GILORVW/S |
Departure
| Time | 2026-05-05 22:53 |
|---|---|
| Airport | Norfolk International Airport (KORF) |
Arrival
| Time | 2026-05-05 23:53 |
|---|---|
| Airport | LaGuardia Airport (KLGA) |
| Time | Latitude | Longitude | Altitude | Speed | Heading |
|---|---|---|---|---|---|
| 2026-05-05 22:26 | 36.89967 | -76.20264 | 1 ft | 0 kts | 193° |
| 2026-05-05 22:41 | 36.89988 | -76.20259 | 1 ft | 4 kts | 188° |
| 2026-05-05 22:41 | 36.90014 | -76.20259 | 1 ft | 4 kts | 170° |
| 2026-05-05 22:41 | 36.90033 | -76.20275 | 1 ft | 3 kts | 105° |
| 2026-05-05 22:42 | 36.90034 | -76.20283 | 1 ft | 0 kts | 103° |
| 2026-05-05 22:46 | 36.90032 | -76.20271 | 1 ft | 3 kts | 103° |
| 2026-05-05 22:46 | 36.90029 | -76.20256 | 1 ft | 0 kts | 103° |
| 2026-05-05 22:46 | 36.90024 | -76.20224 | 1 ft | 7 kts | 102° |
| 2026-05-05 22:47 | 36.90009 | -76.20141 | 1 ft | 12 kts | 100° |
| 2026-05-05 22:47 | 36.90010 | -76.20025 | 1 ft | 14 kts | 94° |
| 2026-05-05 22:47 | 36.89985 | -76.19899 | 1 ft | 17 kts | 105° |
| 2026-05-05 22:47 | 36.89943 | -76.19819 | 1 ft | 11 kts | 124° |
| 2026-05-05 22:48 | 36.89952 | -76.19728 | 1 ft | 12 kts | 42° |
| 2026-05-05 22:48 | 36.90028 | -76.19651 | 1 ft | 16 kts | 39° |
| 2026-05-05 22:48 | 36.90129 | -76.19560 | 1 ft | 20 kts | 30° |
| 2026-05-05 22:48 | 36.90259 | -76.19476 | 1 ft | 22 kts | 38° |
| 2026-05-05 22:49 | 36.90382 | -76.19359 | 1 ft | 21 kts | 38° |
| 2026-05-05 22:49 | 36.90468 | -76.19275 | 0 ft | 17 kts | 37° |
| 2026-05-05 22:49 | 36.90563 | -76.19184 | 0 ft | 12 kts | 38° |
| 2026-05-05 22:49 | 36.90610 | -76.19124 | 0 ft | 8 kts | 69° |
| 2026-05-05 22:50 | 36.90611 | -76.19098 | 0 ft | 0 kts | 99° |
| 2026-05-05 22:50 | 36.90607 | -76.19080 | 0 ft | 5 kts | 111° |
| 2026-05-05 22:50 | 36.90592 | -76.19052 | -1 ft | 3 kts | 128° |
| 2026-05-05 22:50 | 36.90590 | -76.19048 | -1 ft | 1 kts | 128° |
| 2026-05-05 22:51 | 36.90588 | -76.19045 | -1 ft | 0 kts | 128° |
| 2026-05-05 22:51 | 36.90578 | -76.19029 | -1 ft | 7 kts | 128° |
| 2026-05-05 22:52 | 36.90515 | -76.18986 | -2 ft | 13 kts | 188° |
| 2026-05-05 22:52 | 36.90470 | -76.19015 | -2 ft | 0 kts | 219° |
| 2026-05-05 22:52 | 36.90459 | -76.19026 | -2 ft | 15 kts | 219° |
| 2026-05-05 22:52 | 36.90100 | -76.19371 | 2 ft | 114 kts | 218° |
| 2026-05-05 22:53 | 36.89303 | -76.20147 | 496 ft | 164 kts | 218° |
| 2026-05-05 22:53 | 36.88366 | -76.21129 | 1652 ft | 185 kts | 218° |
| 2026-05-05 22:53 | 36.87374 | -76.22151 | 3135 ft | 192 kts | 217° |
| 2026-05-05 22:53 | 36.86228 | -76.23264 | 4262 ft | 229 kts | 217° |
| 2026-05-05 22:54 | 36.84826 | -76.24553 | 5269 ft | 264 kts | 217° |
| 2026-05-05 22:54 | 36.83374 | -76.25830 | 6995 ft | 242 kts | 217° |
| 2026-05-05 22:54 | 36.81979 | -76.27170 | 7636 ft | 267 kts | 227° |
| 2026-05-05 22:54 | 36.81145 | -76.29253 | 8681 ft | 273 kts | 256° |
| 2026-05-05 22:55 | 36.80872 | -76.31593 | 10033 ft | 270 kts | 260° |
| 2026-05-05 22:55 | 36.80599 | -76.33947 | 10943 ft | 282 kts | 260° |
| 2026-05-05 22:55 | 36.80299 | -76.36429 | 11759 ft | 295 kts | 259° |
| 2026-05-05 22:55 | 36.79980 | -76.38992 | 12757 ft | 303 kts | 260° |
| 2026-05-05 22:56 | 36.79649 | -76.41617 | 13810 ft | 309 kts | 260° |
| 2026-05-05 22:56 | 36.79310 | -76.44250 | 14869 ft | 314 kts | 261° |
| 2026-05-05 22:56 | 36.79518 | -76.46975 | 15918 ft | 323 kts | 287° |
| 2026-05-05 22:56 | 36.80630 | -76.49429 | 16940 ft | 334 kts | 307° |
| 2026-05-05 22:57 | 36.82489 | -76.51222 | 17894 ft | 346 kts | 331° |
| 2026-05-05 22:57 | 36.84848 | -76.51977 | 18771 ft | 358 kts | 353° |
| 2026-05-05 22:57 | 36.87371 | -76.51983 | 19586 ft | 366 kts | 359° |
| 2026-05-05 22:57 | 36.89938 | -76.51890 | 20424 ft | 372 kts | 358° |
| 2026-05-05 22:58 | 36.92543 | -76.51848 | 21213 ft | 378 kts | 357° |
| 2026-05-05 22:58 | 36.95194 | -76.51838 | 21940 ft | 385 kts | 356° |
| 2026-05-05 22:58 | 36.97895 | -76.51797 | 22610 ft | 391 kts | 357° |
| 2026-05-05 22:58 | 37.00599 | -76.51752 | 23279 ft | 397 kts | 357° |
| 2026-05-05 22:59 | 37.03380 | -76.51701 | 23898 ft | 402 kts | 357° |
| 2026-05-05 22:59 | 37.06182 | -76.51635 | 24575 ft | 404 kts | 357° |
| 2026-05-05 22:59 | 37.08988 | -76.51575 | 25299 ft | 404 kts | 356° |
| 2026-05-05 22:59 | 37.11801 | -76.51519 | 26017 ft | 405 kts | 356° |
| 2026-05-05 23:00 | 37.17442 | -76.51365 | 27366 ft | 407 kts | 357° |
| 2026-05-05 23:00 | 37.20285 | -76.51270 | 27954 ft | 410 kts | 357° |
| 2026-05-05 23:00 | 37.23139 | -76.51159 | 28560 ft | 411 kts | 357° |
| 2026-05-05 23:01 | 37.26007 | -76.51040 | 29166 ft | 413 kts | 357° |
| 2026-05-05 23:01 | 37.28844 | -76.50901 | 29714 ft | 415 kts | 357° |
| 2026-05-05 23:01 | 37.31733 | -76.50743 | 30234 ft | 416 kts | 358° |
| 2026-05-05 23:01 | 37.34627 | -76.50576 | 30716 ft | 416 kts | 357° |
| 2026-05-05 23:02 | 37.37526 | -76.50404 | 30987 ft | 423 kts | 358° |
| 2026-05-05 23:02 | 37.40507 | -76.50156 | 30988 ft | 431 kts | 359° |
| 2026-05-05 23:02 | 37.46509 | -76.49571 | 30992 ft | 436 kts | 359° |
| 2026-05-05 23:03 | 37.52588 | -76.48954 | 30994 ft | 439 kts | 360° |
| 2026-05-05 23:03 | 37.58647 | -76.48317 | 30975 ft | 440 kts | 360° |
| 2026-05-05 23:04 | 37.64753 | -76.47671 | 30970 ft | 440 kts | 360° |
| 2026-05-05 23:04 | 37.70881 | -76.47021 | 30947 ft | 442 kts | 360° |
| 2026-05-05 23:05 | 37.77036 | -76.46359 | 30957 ft | 446 kts | 2° |
| 2026-05-05 23:05 | 37.80073 | -76.45352 | 30969 ft | 458 kts | 17° |
| 2026-05-05 23:05 | 37.82980 | -76.43670 | 30977 ft | 461 kts | 20° |
| 2026-05-05 23:06 | 37.88761 | -76.40267 | 30940 ft | 462 kts | 20° |
| 2026-05-05 23:06 | 37.94600 | -76.36864 | 30946 ft | 462 kts | 20° |
| 2026-05-05 23:07 | 38.00442 | -76.33468 | 30936 ft | 462 kts | 20° |
| 2026-05-05 23:07 | 38.06290 | -76.30071 | 30934 ft | 462 kts | 20° |
| 2026-05-05 23:08 | 38.12141 | -76.26670 | 30943 ft | 463 kts | 20° |
| 2026-05-05 23:08 | 38.17962 | -76.23282 | 30935 ft | 463 kts | 20° |
| 2026-05-05 23:09 | 38.23821 | -76.19867 | 30939 ft | 463 kts | 20° |
| 2026-05-05 23:09 | 38.29678 | -76.16447 | 30939 ft | 463 kts | 20° |
| 2026-05-05 23:10 | 38.35535 | -76.13021 | 30940 ft | 462 kts | 20° |
| 2026-05-05 23:10 | 38.41373 | -76.09600 | 30945 ft | 462 kts | 20° |
| 2026-05-05 23:11 | 38.47223 | -76.06167 | 30498 ft | 467 kts | 20° |
| 2026-05-05 23:11 | 38.50203 | -76.04414 | 29445 ft | 474 kts | 21° |
| 2026-05-05 23:11 | 38.53199 | -76.02647 | 28340 ft | 472 kts | 21° |
| 2026-05-05 23:12 | 38.56081 | -76.00946 | 28106 ft | 448 kts | 21° |
| 2026-05-05 23:12 | 38.58853 | -75.99311 | 28016 ft | 433 kts | 20° |
| 2026-05-05 23:12 | 38.61579 | -75.97709 | 27969 ft | 431 kts | 20° |
| 2026-05-05 23:12 | 38.64305 | -75.96106 | 27901 ft | 432 kts | 21° |
| 2026-05-05 23:13 | 38.67035 | -75.94499 | 27805 ft | 432 kts | 21° |
| 2026-05-05 23:13 | 38.69760 | -75.92893 | 27713 ft | 431 kts | 21° |
| 2026-05-05 23:13 | 38.72484 | -75.91285 | 27636 ft | 431 kts | 21° |
| 2026-05-05 23:13 | 38.75215 | -75.89674 | 27511 ft | 432 kts | 21° |
| 2026-05-05 23:14 | 38.77944 | -75.88061 | 27438 ft | 432 kts | 21° |
| 2026-05-05 23:14 | 38.80636 | -75.86469 | 27342 ft | 431 kts | 21° |
| 2026-05-05 23:14 | 38.83361 | -75.84856 | 27240 ft | 431 kts | 21° |
| 2026-05-05 23:14 | 38.86080 | -75.83245 | 27149 ft | 431 kts | 21° |
| 2026-05-05 23:15 | 38.88801 | -75.81633 | 27052 ft | 430 kts | 21° |
| 2026-05-05 23:15 | 38.91519 | -75.80022 | 26935 ft | 430 kts | 21° |
| 2026-05-05 23:15 | 38.94159 | -75.78217 | 26939 ft | 433 kts | 29° |
| 2026-05-05 23:15 | 38.96638 | -75.76013 | 26905 ft | 432 kts | 32° |
| 2026-05-05 23:16 | 38.98250 | -75.74519 | 26904 ft | 432 kts | 32° |
| 2026-05-05 23:16 | 39.00693 | -75.72269 | 26898 ft | 432 kts | 32° |
| 2026-05-05 23:16 | 39.03138 | -75.70012 | 26905 ft | 432 kts | 32° |
| 2026-05-05 23:16 | 39.05581 | -75.67760 | 26905 ft | 432 kts | 32° |
| 2026-05-05 23:17 | 39.08023 | -75.65506 | 26905 ft | 432 kts | 32° |
| 2026-05-05 23:17 | 39.10469 | -75.63250 | 26898 ft | 433 kts | 32° |
| 2026-05-05 23:17 | 39.12916 | -75.60992 | 26897 ft | 433 kts | 32° |
| 2026-05-05 23:17 | 39.15364 | -75.58731 | 26883 ft | 434 kts | 32° |
| 2026-05-05 23:18 | 39.17817 | -75.56464 | 26883 ft | 434 kts | 32° |
| 2026-05-05 23:18 | 39.20269 | -75.54197 | 26886 ft | 434 kts | 32° |
| 2026-05-05 23:18 | 39.22721 | -75.51927 | 26825 ft | 435 kts | 32° |
| 2026-05-05 23:18 | 39.25153 | -75.49719 | 26898 ft | 431 kts | 31° |
| 2026-05-05 23:19 | 39.27649 | -75.47534 | 26901 ft | 434 kts | 31° |
| 2026-05-05 23:19 | 39.30162 | -75.45328 | 26189 ft | 440 kts | 31° |
| 2026-05-05 23:19 | 39.32647 | -75.43133 | 26077 ft | 427 kts | 31° |
| 2026-05-05 23:19 | 39.35105 | -75.40964 | 25814 ft | 427 kts | 31° |
| 2026-05-05 23:20 | 39.37548 | -75.38807 | 25640 ft | 425 kts | 31° |
| 2026-05-05 23:20 | 39.39987 | -75.36646 | 25388 ft | 425 kts | 31° |
| 2026-05-05 23:20 | 39.42425 | -75.34490 | 25191 ft | 424 kts | 31° |
| 2026-05-05 23:20 | 39.44855 | -75.32340 | 24976 ft | 423 kts | 31° |
| 2026-05-05 23:21 | 39.47282 | -75.30189 | 24759 ft | 423 kts | 31° |
| 2026-05-05 23:21 | 39.49672 | -75.28069 | 24528 ft | 422 kts | 31° |
| 2026-05-05 23:21 | 39.52091 | -75.25898 | 24088 ft | 423 kts | 33° |
| 2026-05-05 23:21 | 39.54463 | -75.23658 | 23602 ft | 423 kts | 33° |
| 2026-05-05 23:22 | 39.56839 | -75.21417 | 22963 ft | 420 kts | 33° |
| 2026-05-05 23:22 | 39.59187 | -75.19201 | 22416 ft | 415 kts | 33° |
| 2026-05-05 23:22 | 39.61512 | -75.17008 | 21858 ft | 411 kts | 33° |
| 2026-05-05 23:22 | 39.63815 | -75.14836 | 21319 ft | 407 kts | 33° |
| 2026-05-05 23:23 | 39.66097 | -75.12682 | 20782 ft | 404 kts | 33° |
| 2026-05-05 23:23 | 39.68367 | -75.10544 | 20243 ft | 401 kts | 33° |
| 2026-05-05 23:23 | 39.70677 | -75.08549 | 19712 ft | 398 kts | 30° |
| 2026-05-05 23:23 | 39.72954 | -75.06616 | 19193 ft | 395 kts | 31° |
| 2026-05-05 23:24 | 39.75236 | -75.04664 | 18673 ft | 391 kts | 31° |
| 2026-05-05 23:24 | 39.77499 | -75.02725 | 18142 ft | 388 kts | 31° |
| 2026-05-05 23:24 | 39.79740 | -75.00798 | 17667 ft | 383 kts | 31° |
| 2026-05-05 23:24 | 39.81946 | -74.98900 | 17289 ft | 381 kts | 31° |
| 2026-05-05 23:25 | 39.84155 | -74.96995 | 16762 ft | 379 kts | 31° |
| 2026-05-05 23:25 | 39.86337 | -74.95090 | 16265 ft | 377 kts | 32° |
| 2026-05-05 23:25 | 39.88477 | -74.93142 | 15767 ft | 374 kts | 32° |
| 2026-05-05 23:25 | 39.90597 | -74.91214 | 15277 ft | 371 kts | 32° |
| 2026-05-05 23:26 | 39.92629 | -74.89169 | 14791 ft | 368 kts | 41° |
| 2026-05-05 23:26 | 39.94352 | -74.86797 | 14300 ft | 362 kts | 47° |
| 2026-05-05 23:26 | 39.96014 | -74.84378 | 13822 ft | 355 kts | 46° |
| 2026-05-05 23:26 | 39.97654 | -74.82014 | 13332 ft | 348 kts | 46° |
| 2026-05-05 23:27 | 39.99262 | -74.79699 | 12899 ft | 340 kts | 46° |
| 2026-05-05 23:27 | 40.00838 | -74.77432 | 12445 ft | 334 kts | 46° |
| 2026-05-05 23:27 | 40.02389 | -74.75204 | 12006 ft | 329 kts | 45° |
| 2026-05-05 23:27 | 40.03914 | -74.73013 | 11576 ft | 324 kts | 45° |
| 2026-05-05 23:28 | 40.05424 | -74.70842 | 11151 ft | 321 kts | 45° |
| 2026-05-05 23:28 | 40.06920 | -74.68692 | 10728 ft | 319 kts | 45° |
| 2026-05-05 23:28 | 40.08386 | -74.66583 | 10304 ft | 317 kts | 45° |
| 2026-05-05 23:28 | 40.09852 | -74.64472 | 10117 ft | 310 kts | 45° |
| 2026-05-05 23:29 | 40.11301 | -74.62388 | 10010 ft | 309 kts | 45° |
| 2026-05-05 23:29 | 40.12741 | -74.60314 | 10010 ft | 310 kts | 45° |
| 2026-05-05 23:29 | 40.14194 | -74.58222 | 10001 ft | 312 kts | 45° |
| 2026-05-05 23:29 | 40.15655 | -74.56117 | 10000 ft | 313 kts | 45° |
| 2026-05-05 23:30 | 40.17118 | -74.54006 | 10001 ft | 314 kts | 45° |
| 2026-05-05 23:30 | 40.18587 | -74.51886 | 10010 ft | 315 kts | 45° |
| 2026-05-05 23:30 | 40.20057 | -74.49763 | 10018 ft | 314 kts | 45° |
| 2026-05-05 23:30 | 40.21546 | -74.47730 | 10019 ft | 313 kts | 40° |
| 2026-05-05 23:31 | 40.23134 | -74.45772 | 10024 ft | 314 kts | 40° |
| 2026-05-05 23:31 | 40.24714 | -74.43805 | 10022 ft | 313 kts | 40° |
| 2026-05-05 23:31 | 40.26288 | -74.41833 | 10022 ft | 314 kts | 40° |
| 2026-05-05 23:31 | 40.27864 | -74.39856 | 10025 ft | 314 kts | 40° |
| 2026-05-05 23:32 | 40.29442 | -74.37871 | 10020 ft | 316 kts | 41° |
| 2026-05-05 23:32 | 40.31022 | -74.35875 | 10032 ft | 316 kts | 41° |
| 2026-05-05 23:32 | 40.32603 | -74.33877 | 10024 ft | 316 kts | 40° |
| 2026-05-05 23:32 | 40.34181 | -74.31880 | 10030 ft | 316 kts | 40° |
| 2026-05-05 23:33 | 40.35741 | -74.29903 | 10028 ft | 316 kts | 40° |
| 2026-05-05 23:33 | 40.37327 | -74.27894 | 9901 ft | 318 kts | 40° |
| 2026-05-05 23:33 | 40.38908 | -74.25886 | 9798 ft | 315 kts | 40° |
| 2026-05-05 23:33 | 40.40483 | -74.23887 | 9582 ft | 317 kts | 40° |
| 2026-05-05 23:34 | 40.42067 | -74.21864 | 9211 ft | 318 kts | 41° |
| 2026-05-05 23:34 | 40.43649 | -74.19846 | 8863 ft | 316 kts | 40° |
| 2026-05-05 23:34 | 40.45228 | -74.17839 | 8412 ft | 316 kts | 40° |
| 2026-05-05 23:34 | 40.46803 | -74.15832 | 7980 ft | 316 kts | 41° |
| 2026-05-05 23:35 | 40.48381 | -74.13822 | 7527 ft | 315 kts | 41° |
| 2026-05-05 23:35 | 40.49929 | -74.11852 | 7131 ft | 313 kts | 41° |
| 2026-05-05 23:35 | 40.51490 | -74.09860 | 6718 ft | 313 kts | 41° |
| 2026-05-05 23:35 | 40.53117 | -74.07993 | 6299 ft | 308 kts | 30° |
| 2026-05-05 23:36 | 40.54940 | -74.06541 | 5889 ft | 306 kts | 26° |
| 2026-05-05 23:36 | 40.56764 | -74.05102 | 5508 ft | 306 kts | 27° |
| 2026-05-05 23:36 | 40.58570 | -74.03632 | 5101 ft | 305 kts | 28° |
| 2026-05-05 23:36 | 40.60370 | -74.02142 | 4702 ft | 305 kts | 29° |
| 2026-05-05 23:37 | 40.62154 | -74.00649 | 4325 ft | 302 kts | 30° |
| 2026-05-05 23:37 | 40.63905 | -73.99177 | 4102 ft | 296 kts | 28° |
| 2026-05-05 23:37 | 40.65642 | -73.97713 | 3869 ft | 297 kts | 30° |
| 2026-05-05 23:37 | 40.67108 | -73.95861 | 3733 ft | 299 kts | 57° |
| 2026-05-05 23:38 | 40.68014 | -73.93404 | 3635 ft | 297 kts | 68° |
| 2026-05-05 23:38 | 40.68836 | -73.90930 | 3370 ft | 292 kts | 68° |
| 2026-05-05 23:38 | 40.69649 | -73.88544 | 3201 ft | 283 kts | 68° |
| 2026-05-05 23:38 | 40.70467 | -73.86186 | 2850 ft | 281 kts | 67° |
| 2026-05-05 23:39 | 40.71266 | -73.83907 | 2869 ft | 269 kts | 67° |
| 2026-05-05 23:39 | 40.72065 | -73.81641 | 2940 ft | 274 kts | 68° |
| 2026-05-05 23:39 | 40.72882 | -73.79358 | 2968 ft | 278 kts | 66° |
| 2026-05-05 23:39 | 40.73678 | -73.77079 | 2999 ft | 278 kts | 67° |
| 2026-05-05 23:40 | 40.74483 | -73.74750 | 2999 ft | 280 kts | 68° |
| 2026-05-05 23:40 | 40.75300 | -73.72423 | 2992 ft | 280 kts | 67° |
| 2026-05-05 23:40 | 40.76115 | -73.70092 | 3000 ft | 281 kts | 67° |
| 2026-05-05 23:40 | 40.76923 | -73.67752 | 3020 ft | 282 kts | 67° |
| 2026-05-05 23:41 | 40.77732 | -73.65421 | 3005 ft | 278 kts | 67° |
| 2026-05-05 23:41 | 40.78756 | -73.63256 | 3019 ft | 281 kts | 47° |
| 2026-05-05 23:41 | 40.80174 | -73.61476 | 3030 ft | 283 kts | 33° |
| 2026-05-05 23:41 | 40.81839 | -73.60137 | 3025 ft | 279 kts | 27° |
| 2026-05-05 23:42 | 40.83504 | -73.58836 | 2983 ft | 277 kts | 27° |
| 2026-05-05 23:42 | 40.85144 | -73.57536 | 2969 ft | 283 kts | 27° |
| 2026-05-05 23:42 | 40.86825 | -73.56236 | 3020 ft | 276 kts | 27° |
| 2026-05-05 23:42 | 40.88487 | -73.54935 | 2975 ft | 278 kts | 27° |
| 2026-05-05 23:43 | 40.90137 | -73.53633 | 2998 ft | 276 kts | 27° |
| 2026-05-05 23:43 | 40.91801 | -73.52359 | 2989 ft | 276 kts | 21° |
| 2026-05-05 23:43 | 40.93618 | -73.51881 | 3003 ft | 260 kts | 348° |
| 2026-05-05 23:43 | 40.95228 | -73.52554 | 3010 ft | 230 kts | 317° |
| 2026-05-05 23:44 | 40.96288 | -73.53981 | 3017 ft | 213 kts | 300° |
| 2026-05-05 23:44 | 40.97245 | -73.55485 | 2985 ft | 213 kts | 301° |
| 2026-05-05 23:44 | 40.98188 | -73.56958 | 2979 ft | 212 kts | 301° |
| 2026-05-05 23:44 | 40.99139 | -73.58440 | 2989 ft | 211 kts | 301° |
| 2026-05-05 23:45 | 41.00087 | -73.59926 | 2982 ft | 211 kts | 301° |
| 2026-05-05 23:45 | 41.00942 | -73.61530 | 2546 ft | 212 kts | 282° |
| 2026-05-05 23:45 | 41.00946 | -73.63389 | 2026 ft | 203 kts | 242° |
| 2026-05-05 23:45 | 41.00041 | -73.64681 | 2046 ft | 187 kts | 217° |
| 2026-05-05 23:46 | 40.99034 | -73.65735 | 2078 ft | 189 kts | 221° |
| 2026-05-05 23:46 | 40.98009 | -73.66905 | 1819 ft | 197 kts | 220° |
| 2026-05-05 23:46 | 40.96980 | -73.68063 | 1719 ft | 189 kts | 220° |
| 2026-05-05 23:46 | 40.96002 | -73.69208 | 1713 ft | 187 kts | 221° |
| 2026-05-05 23:47 | 40.95062 | -73.70332 | 1780 ft | 181 kts | 221° |
| 2026-05-05 23:47 | 40.94163 | -73.71408 | 1758 ft | 168 kts | 221° |
| 2026-05-05 23:47 | 40.93312 | -73.72420 | 1741 ft | 162 kts | 221° |
| 2026-05-05 23:47 | 40.92466 | -73.73421 | 1741 ft | 162 kts | 222° |
| 2026-05-05 23:48 | 40.91642 | -73.74403 | 1744 ft | 158 kts | 223° |
| 2026-05-05 23:48 | 40.90822 | -73.75376 | 1756 ft | 157 kts | 222° |
| 2026-05-05 23:48 | 40.89999 | -73.76353 | 1745 ft | 162 kts | 222° |
| 2026-05-05 23:48 | 40.89176 | -73.77330 | 1733 ft | 160 kts | 221° |
| 2026-05-05 23:49 | 40.88351 | -73.78304 | 1743 ft | 153 kts | 222° |
| 2026-05-05 23:49 | 40.87583 | -73.79220 | 1723 ft | 149 kts | 221° |
| 2026-05-05 23:49 | 40.86804 | -73.80149 | 1698 ft | 151 kts | 221° |
| 2026-05-05 23:49 | 40.86025 | -73.81046 | 1746 ft | 147 kts | 217° |
| 2026-05-05 23:50 | 40.85187 | -73.81755 | 1809 ft | 134 kts | 212° |
| 2026-05-05 23:50 | 40.84438 | -73.82306 | 1794 ft | 117 kts | 211° |
| 2026-05-05 23:50 | 40.83756 | -73.82831 | 1717 ft | 108 kts | 213° |
| 2026-05-05 23:50 | 40.83136 | -73.83344 | 1621 ft | 104 kts | 211° |
| 2026-05-05 23:51 | 40.82520 | -73.83833 | 1472 ft | 104 kts | 210° |
| 2026-05-05 23:51 | 40.81863 | -73.84309 | 1223 ft | 110 kts | 208° |
| 2026-05-05 23:51 | 40.81193 | -73.84842 | 931 ft | 113 kts | 211° |
| 2026-05-05 23:51 | 40.80547 | -73.85415 | 692 ft | 113 kts | 211° |
| 2026-05-05 23:52 | 40.79889 | -73.85935 | 442 ft | 108 kts | 209° |
| 2026-05-05 23:52 | 40.79240 | -73.86492 | 257 ft | 110 kts | 214° |
| 2026-05-05 23:52 | 40.78645 | -73.86987 | 85 ft | 95 kts | 212° |
| 2026-05-05 23:52 | 40.78123 | -73.87415 | 11 ft | 76 kts | 214° |
| 2026-05-05 23:53 | 40.77795 | -73.87678 | 20 ft | 35 kts | 213° |
| 2026-05-05 23:53 | 40.77596 | -73.87835 | 22 ft | 28 kts | 202° |
| 2026-05-05 23:53 | 40.77541 | -73.87798 | 20 ft | 8 kts | 94° |
| 2026-05-05 23:53 | 40.77540 | -73.87776 | 19 ft | 1 kts | 93° |
| 2026-05-05 23:54 | 40.77542 | -73.87735 | 18 ft | 9 kts | 88° |
| 2026-05-05 23:54 | 40.77537 | -73.87694 | 18 ft | 0 kts | 110° |
| 2026-05-05 23:55 | 40.77526 | -73.87664 | 19 ft | 10 kts | 115° |
| 2026-05-05 23:55 | 40.77473 | -73.87553 | 17 ft | 12 kts | 133° |
| 2026-05-05 23:55 | 40.77439 | -73.87457 | 17 ft | 13 kts | 101° |
| 2026-05-05 23:55 | 40.77431 | -73.87331 | 17 ft | 15 kts | 89° |
| 2026-05-05 23:56 | 40.77419 | -73.87195 | 17 ft | 13 kts | 104° |
| 2026-05-05 23:56 | 40.77444 | -73.87129 | 18 ft | 8 kts | 31° |
| 2026-05-05 23:56 | 40.77494 | -73.87090 | 17 ft | 3 kts | 24° |
| 2026-05-05 23:56 | 40.77520 | -73.87087 | 17 ft | 5 kts | 344° |
| 2026-05-05 23:57 | 40.77534 | -73.87110 | 17 ft | 2 kts | 295° |
| 2026-05-05 23:57 | 40.77537 | -73.87117 | 17 ft | 1 kts | 301° |
| 2026-05-05 23:57 | 40.77541 | -73.87126 | 17 ft | 1 kts | 302° |
| 2026-05-05 23:57 | 40.77543 | -73.87130 | 17 ft | 0 kts | 302° |
| 2026-05-05 23:58 | 40.77544 | -73.87131 | 17 ft | 0 kts | 302° |